Time;durP1;ratioP1;P1;durP2;ratioP2;P2;SDS_P1;SDS_P2;PMS_P1;PMS_P2;Temp;Humidity;BMP_temperature;BMP_pressure;BME280_temperature;BME280_humidity;BME280_pressure;Samples;Min_cycle;Max_cycle;Signal;HPM_P1;HPM_P2
2021/08/08 00:01:23;;;;;;;10.15;4.00;;;;;;;15.48;100.00;100143.31;5235133;28;20029;-69
2021/08/08 00:03:54;;;;;;;6.88;3.42;;;;;;;15.49;100.00;100145.81;5235456;28;20022;-69
2021/08/08 00:06:29;;;;;;;9.30;4.07;;;;;;;15.51;100.00;100156.16;5235987;28;20079;-69
2021/08/08 00:09:00;;;;;;;8.40;4.22;;;;;;;15.48;100.00;100152.06;5234192;28;20076;-69
2021/08/08 00:11:32;;;;;;;7.93;4.18;;;;;;;15.49;100.00;100158.16;5233822;28;20486;-69
2021/08/08 00:14:03;;;;;;;7.75;4.13;;;;;;;15.48;100.00;100157.34;5235457;28;20388;-69
2021/08/08 00:16:35;;;;;;;11.40;4.55;;;;;;;15.48;100.00;100167.91;5236146;28;20491;-69
2021/08/08 00:19:06;;;;;;;10.57;4.60;;;;;;;15.48;100.00;100161.81;5235963;28;20163;-69
2021/08/08 00:21:38;;;;;;;11.07;4.82;;;;;;;15.47;100.00;100158.34;5233332;28;20060;-69
2021/08/08 00:24:09;;;;;;;14.07;5.15;;;;;;;15.46;100.00;100169.91;5235071;28;20040;-68
2021/08/08 00:26:40;;;;;;;11.32;4.55;;;;;;;15.48;100.00;100165.25;5235654;28;20040;-69
2021/08/08 00:29:12;;;;;;;10.80;4.18;;;;;;;15.49;100.00;100168.72;5235517;28;20030;-69
2021/08/08 00:31:43;;;;;;;11.63;4.57;;;;;;;15.50;100.00;100173.00;5235143;28;20048;-69
2021/08/08 00:34:14;;;;;;;11.82;5.25;;;;;;;15.49;100.00;100174.00;5234698;28;20517;-69
2021/08/08 00:36:45;;;;;;;14.75;4.72;;;;;;;15.47;100.00;100181.28;5234876;28;20107;-69
2021/08/08 00:39:17;;;;;;;12.35;4.72;;;;;;;15.49;100.00;100176.63;5235003;28;20026;-69
2021/08/08 00:41:48;;;;;;;13.82;5.40;;;;;;;15.47;100.00;100176.00;5235074;28;20021;-69
2021/08/08 00:44:20;;;;;;;12.38;4.88;;;;;;;15.49;100.00;100172.19;5233718;28;20021;-69
2021/08/08 00:46:51;;;;;;;13.55;5.53;;;;;;;15.46;100.00;100179.66;5233617;28;20449;-69
2021/08/08 00:49:22;;;;;;;14.15;4.88;;;;;;;15.47;100.00;100178.66;5228911;28;20075;-69
2021/08/08 00:51:53;;;;;;;9.57;4.70;;;;;;;15.48;100.00;100183.75;5235096;28;20362;-69
2021/08/08 00:54:25;;;;;;;11.85;4.78;;;;;;;15.47;100.00;100191.84;5234903;28;20021;-68
2021/08/08 00:56:56;;;;;;;13.13;5.70;;;;;;;15.47;100.00;100192.66;5234396;28;20112;-69
2021/08/08 00:59:27;;;;;;;15.00;5.20;;;;;;;15.46;100.00;100193.66;5234714;28;20017;-69
2021/08/08 01:02:00;;;;;;;11.38;4.28;;;;;;;15.46;100.00;100192.84;5235138;28;20025;-69
2021/08/08 01:04:43;;;;;;;12.38;4.70;;;;;;;15.50;100.00;100202.06;5233801;28;20029;-69
2021/08/08 01:07:18;;;;;;;15.13;5.22;;;;;;;15.48;100.00;100219.88;5233774;28;20132;-68
2021/08/08 01:09:53;;;;;;;13.02;4.90;;;;;;;15.49;100.00;100210.94;5234157;28;20360;-69
2021/08/08 01:12:26;;;;;;;12.45;4.65;;;;;;;15.47;100.00;100219.06;5234317;28;20395;-69
2021/08/08 01:14:58;;;;;;;15.18;5.40;;;;;;;15.46;100.00;100214.78;5234880;28;20028;-68
2021/08/08 01:17:30;;;;;;;12.13;4.68;;;;;;;15.48;100.00;100214.59;5233002;28;20041;-69
2021/08/08 01:20:09;;;;;;;18.05;6.10;;;;;;;15.49;100.00;100219.72;5233850;28;20017;-69
2021/08/08 01:22:49;;;;;;;18.25;5.53;;;;;;;15.51;100.00;100217.72;5232724;28;20081;-69
2021/08/08 01:25:22;;;;;;;12.05;5.13;;;;;;;15.48;100.00;100231.25;5233632;28;20021;-69
2021/08/08 01:27:58;;;;;;;13.93;4.65;;;;;;;15.51;100.00;100238.00;5231728;28;20518;-69
2021/08/08 01:30:29;;;;;;;15.85;5.28;;;;;;;15.49;100.00;100235.56;5231718;28;20624;-68
2021/08/08 01:33:02;;;;;;;12.90;5.43;;;;;;;15.48;100.00;100235.72;5230218;28;20083;-69
2021/08/08 01:35:33;;;;;;;18.02;5.57;;;;;;;15.46;100.00;100237.72;5233961;28;20060;-69
2021/08/08 01:38:07;;;;;;;11.48;4.70;;;;;;;15.48;100.00;100241.81;5232603;28;20048;-69
2021/08/08 01:40:51;;;;;;;15.77;5.28;;;;;;;15.50;100.00;100246.94;5232815;28;20029;-69
2021/08/08 01:43:24;;;;;;;;;;;;;;;15.64;100.00;100254.06;5234953;28;20059;-69
2021/08/08 01:46:05;;;;;;;14.70;4.90;;;;;;;15.48;100.00;100247.09;5233487;28;19916;-69
2021/08/08 01:48:44;;;;;;;19.80;5.45;;;;;;;15.42;100.00;100247.81;5233947;28;20028;-69
2021/08/08 01:51:15;;;;;;;17.48;5.65;;;;;;;15.42;100.00;100253.09;5232588;28;20014;-68
2021/08/08 01:53:47;;;;;;;15.65;5.03;;;;;;;15.41;100.00;100256.72;5233581;28;20040;-68
2021/08/08 01:56:19;;;;;;;14.87;5.40;;;;;;;15.41;100.00;100255.91;5233384;28;20608;-68
2021/08/08 01:58:50;;;;;;;18.75;5.60;;;;;;;15.38;100.00;100258.88;5233147;28;20033;-68
2021/08/08 02:01:29;;;;;;;15.13;5.72;;;;;;;15.41;100.00;100261.19;5231915;28;20084;-68
2021/08/08 02:04:00;;;;;;;18.92;5.65;;;;;;;15.38;100.00;100266.81;5233085;28;20025;-68
2021/08/08 02:06:32;;;;;;;18.17;4.72;;;;;;;15.38;100.00;100261.53;5233202;28;20076;-68
2021/08/08 02:09:03;;;;;;;13.52;4.28;;;;;;;15.33;100.00;100264.69;5231854;28;20036;-68
2021/08/08 02:11:35;;;;;;;12.80;4.60;;;;;;;15.31;100.00;100270.16;5233223;28;20013;-68
2021/08/08 02:14:06;;;;;;;17.92;5.20;;;;;;;15.32;100.00;100269.16;5231946;28;20036;-68
2021/08/08 02:16:38;;;;;;;30.10;5.70;;;;;;;15.31;100.00;100271.97;5232941;28;20100;-68
2021/08/08 02:19:09;;;;;;;15.43;4.70;;;;;;;15.30;100.00;100276.44;5231197;28;20051;-67
2021/08/08 02:21:41;;;;;;;13.70;3.72;;;;;;;15.29;100.00;100271.31;5230693;28;20304;-68
2021/08/08 02:24:12;;;;;;;13.85;5.07;;;;;;;15.27;100.00;100278.59;5232845;28;20514;-68
2021/08/08 02:26:43;;;;;;;16.23;4.10;;;;;;;15.25;100.00;100275.31;5231841;28;20028;-68
2021/08/08 02:29:15;;;;;;;15.57;4.65;;;;;;;15.21;100.00;100276.66;5232152;28;20479;-68
2021/08/08 02:31:46;;;;;;;21.38;4.50;;;;;;;15.16;100.00;100285.09;5232927;28;20025;-68
2021/08/08 02:34:20;;;;;;;14.30;3.75;;;;;;;15.15;100.00;100277.34;5232997;28;20395;-68
2021/08/08 02:36:52;;;;;;;16.40;4.57;;;;;;;15.14;100.00;100291.53;5233336;28;20066;-68
2021/08/08 02:39:23;;;;;;;12.45;4.72;;;;;;;15.13;100.00;100300.44;5232462;28;20033;-68
2021/08/08 02:41:54;;;;;;;17.00;4.80;;;;;;;15.14;100.00;100305.53;5231557;28;20029;-68
2021/08/08 02:44:25;;;;;;;18.85;5.18;;;;;;;15.09;100.00;100297.34;5233128;28;20343;-68
2021/08/08 02:46:57;;;;;;;12.27;4.07;;;;;;;15.16;100.00;100311.47;5232371;28;20523;-68
2021/08/08 02:49:28;;;;;;;17.23;4.40;;;;;;;15.15;100.00;100316.91;5234038;28;20029;-68
2021/08/08 02:51:59;;;;;;;13.85;5.32;;;;;;;15.15;100.00;100317.72;5231884;28;20022;-67
2021/08/08 02:54:32;;;;;;;17.05;4.55;;;;;;;15.13;100.00;100327.66;5232731;28;20021;-68
2021/08/08 02:57:03;;;;;;;16.92;4.40;;;;;;;15.10;100.00;100322.72;5232272;28;20056;-68
2021/08/08 02:59:36;;;;;;;21.25;5.10;;;;;;;15.08;100.00;100333.44;5233499;28;20641;-68
2021/08/08 03:02:07;;;;;;;17.25;4.32;;;;;;;15.07;100.00;100338.88;5232879;28;20014;-68
2021/08/08 03:04:38;;;;;;;17.58;4.45;;;;;;;15.07;100.00;100331.78;5230277;28;20032;-68
2021/08/08 03:07:10;;;;;;;13.00;4.60;;;;;;;15.08;100.00;100340.53;5230328;28;20029;-68
2021/08/08 03:09:41;;;;;;;14.55;4.07;;;;;;;15.09;100.00;100339.53;5236389;28;20033;-68
2021/08/08 03:12:12;;;;;;;13.73;3.80;;;;;;;15.08;100.00;100336.09;5236953;28;20056;-68
2021/08/08 03:14:43;;;;;;;16.27;4.35;;;;;;;15.08;100.00;100345.81;5235982;28;20314;-68
2021/08/08 03:17:15;;;;;;;15.20;4.60;;;;;;;15.11;100.00;100348.09;5235782;28;20022;-68
2021/08/08 03:19:46;;;;;;;13.02;4.07;;;;;;;15.13;100.00;100347.94;5235097;28;20426;-68
2021/08/08 03:22:17;;;;;;;15.07;4.25;;;;;;;15.13;100.00;100353.22;5236136;28;20034;-68
2021/08/08 03:24:49;;;;;;;20.63;5.00;;;;;;;15.13;100.00;100354.03;5236313;28;20037;-68
2021/08/08 03:27:20;;;;;;;18.48;4.80;;;;;;;15.12;100.00;100360.31;5234495;28;20501;-67
2021/08/08 03:29:51;;;;;;;17.65;4.82;;;;;;;15.13;100.00;100358.50;5234353;28;20086;-68
2021/08/08 03:32:23;;;;;;;12.85;3.97;;;;;;;15.13;100.00;100358.50;5234450;28;20048;-68
2021/08/08 03:34:54;;;;;;;13.98;3.90;;;;;;;15.12;100.00;100351.59;5235678;28;20520;-68
2021/08/08 03:37:26;;;;;;;16.67;4.23;;;;;;;15.12;100.00;100357.69;5235589;28;20052;-68
2021/08/08 03:39:57;;;;;;;14.05;3.55;;;;;;;15.13;100.00;100367.22;5236161;28;20377;-68
2021/08/08 03:42:28;;;;;;;16.02;4.50;;;;;;;15.09;100.00;100356.19;5234758;28;20029;-68
2021/08/08 03:45:00;;;;;;;16.92;4.22;;;;;;;15.08;100.00;100357.19;5236233;28;20033;-68
2021/08/08 03:47:34;;;;;;;13.10;4.13;;;;;;;15.13;100.00;100369.88;5236103;28;20140;-68
2021/08/08 03:50:06;;;;;;;14.02;3.78;;;;;;;15.08;100.00;100374.84;5235169;28;20104;-68
2021/08/08 03:52:38;;;;;;;16.30;4.20;;;;;;;15.08;100.00;100382.75;5235526;28;20027;-68
2021/08/08 03:55:09;;;;;;;14.65;3.90;;;;;;;15.06;100.00;100382.91;5235003;28;20494;-68
2021/08/08 03:57:41;;;;;;;19.50;5.00;;;;;;;15.03;100.00;100385.88;5235935;28;20025;-68
2021/08/08 04:00:12;;;;;;;14.38;4.15;;;;;;;15.06;100.00;100390.81;5233979;28;20391;-68
2021/08/08 04:02:44;;;;;;;14.43;4.22;;;;;;;15.05;100.00;100388.38;5236569;28;20025;-68
2021/08/08 04:05:15;;;;;;;13.82;3.70;;;;;;;15.05;100.00;100393.66;5234800;28;20116;-68
2021/08/08 04:07:46;;;;;;;13.85;3.95;;;;;;;15.05;100.00;100396.28;5235712;28;20029;-68
2021/08/08 04:10:18;;;;;;;14.40;4.35;;;;;;;15.05;100.00;100396.28;5233332;28;20030;-68
2021/08/08 04:12:49;;;;;;;14.68;4.25;;;;;;;15.05;100.00;100398.94;5235320;28;20076;-68
2021/08/08 04:15:21;;;;;;;16.10;4.22;;;;;;;15.03;100.00;100393.81;5232679;28;20068;-68
2021/08/08 04:17:52;;;;;;;13.10;3.92;;;;;;;15.04;100.00;100394.66;5235065;28;20025;-68
2021/08/08 04:20:23;;;;;;;18.73;4.32;;;;;;;15.05;100.00;100401.56;5234369;28;20039;-68
2021/08/08 04:22:55;;;;;;;15.20;3.85;;;;;;;15.04;100.00;100402.56;5214898;28;20030;-68
2021/08/08 04:25:27;;;;;;;15.63;4.15;;;;;;;15.05;100.00;100410.28;5212981;28;20041;-68
2021/08/08 04:27:59;;;;;;;13.10;4.45;;;;;;;15.06;100.00;100403.19;5212378;28;20025;-68
2021/08/08 04:30:32;;;;;;;15.20;4.55;;;;;;;15.05;100.00;100414.75;5208000;28;20040;-68
2021/08/08 04:33:04;;;;;;;15.32;4.43;;;;;;;15.06;100.00;100411.94;5213917;28;20025;-67
2021/08/08 04:35:38;;;;;;;12.63;3.77;;;;;;;15.08;100.00;100425.78;5214255;28;20029;-68
2021/08/08 04:38:09;;;;;;;16.77;4.68;;;;;;;15.08;100.00;100422.34;5214148;28;20456;-67
2021/08/08 04:40:41;;;;;;;15.88;4.55;;;;;;;15.09;100.00;100421.34;5213193;28;20037;-68
2021/08/08 04:43:12;;;;;;;15.07;4.22;;;;;;;15.10;100.00;100425.59;5214037;28;20025;-68
2021/08/08 04:45:43;;;;;;;17.33;4.18;;;;;;;15.09;100.00;100434.53;5213901;28;20111;-68
2021/08/08 04:48:14;;;;;;;14.77;4.53;;;;;;;15.11;100.00;100436.97;5213418;28;20052;-68
2021/08/08 04:50:46;;;;;;;15.00;3.95;;;;;;;15.11;100.00;100440.44;5213514;28;20399;-67
2021/08/08 04:53:18;;;;;;;21.08;5.80;;;;;;;15.12;100.00;100436.00;5213807;28;20443;-68
2021/08/08 04:55:50;;;;;;;15.10;4.10;;;;;;;15.14;100.00;100437.47;5213351;28;20033;-68
2021/08/08 04:58:21;;;;;;;17.92;4.35;;;;;;;15.13;100.00;100442.94;5214292;28;20028;-68
2021/08/08 05:00:53;;;;;;;17.95;4.05;;;;;;;15.16;100.00;100445.22;5213374;28;20017;-68
2021/08/08 05:03:24;;;;;;;14.07;4.55;;;;;;;15.15;100.00;100443.56;5213579;28;20049;-67
2021/08/08 05:05:55;;;;;;;14.38;4.40;;;;;;;15.18;100.00;100441.41;5213047;28;20021;-68
2021/08/08 05:08:26;;;;;;;16.07;4.50;;;;;;;15.18;100.00;100446.69;5214029;28;20159;-68
2021/08/08 05:10:58;;;;;;;16.90;4.40;;;;;;;15.16;100.00;100453.97;5213595;28;20276;-68
2021/08/08 05:13:29;;;;;;;17.03;4.43;;;;;;;15.16;100.00;100453.97;5213237;28;20020;-68
2021/08/08 05:16:00;;;;;;;15.07;4.35;;;;;;;15.17;100.00;100454.78;5212344;28;20333;-67
2021/08/08 05:18:31;;;;;;;16.33;3.83;;;;;;;15.18;100.00;100457.25;5214446;28;20503;-68
2021/08/08 05:21:03;;;;;;;17.95;4.30;;;;;;;15.19;100.00;100460.69;5218159;28;20041;-68
2021/08/08 05:23:35;;;;;;;19.00;4.25;;;;;;;15.15;100.00;100457.56;5233164;28;20442;-67
2021/08/08 05:26:07;;;;;;;13.85;3.92;;;;;;;15.23;100.00;100472.59;5232861;28;20098;-68
2021/08/08 05:28:41;;;;;;;17.02;4.18;;;;;;;15.19;100.00;100474.75;5234163;28;20514;-68
2021/08/08 05:31:12;;;;;;;14.95;4.53;;;;;;;15.24;100.00;100475.06;5232843;28;20104;-68
2021/08/08 05:33:43;;;;;;;13.63;4.03;;;;;;;15.27;100.00;100477.34;5233868;28;20041;-68
2021/08/08 05:36:15;;;;;;;15.02;3.95;;;;;;;15.30;100.00;100487.59;5233268;28;20390;-67
2021/08/08 05:38:46;;;;;;;17.00;4.85;;;;;;;15.35;100.00;100487.06;5233205;28;20095;-68
2021/08/08 05:41:17;;;;;;;14.20;4.18;;;;;;;15.32;100.00;100490.03;5233041;28;20355;-68
2021/08/08 05:43:48;;;;;;;16.15;5.00;;;;;;;15.27;100.00;100477.34;5234188;28;20135;-68
2021/08/08 05:46:20;;;;;;;18.90;5.03;;;;;;;15.33;100.00;100492.50;5233294;28;20032;-68
2021/08/08 05:48:51;;;;;;;16.85;4.68;;;;;;;15.39;100.00;100495.47;5232193;28;20069;-67
2021/08/08 05:51:22;;;;;;;18.27;4.47;;;;;;;15.37;100.00;100489.53;5232853;28;20025;-68
2021/08/08 05:53:54;;;;;;;19.13;4.72;;;;;;;15.39;100.00;100506.84;5229081;28;20026;-68
2021/08/08 05:56:26;;;;;;;15.75;4.10;;;;;;;15.40;100.00;100503.22;5233006;28;20499;-68
2021/08/08 05:58:57;;;;;;;16.58;4.65;;;;;;;15.42;100.00;100506.50;5231471;28;20040;-68
2021/08/08 06:01:28;;;;;;;19.92;4.75;;;;;;;15.46;100.00;100512.28;5232370;28;20025;-68
2021/08/08 06:03:59;;;;;;;14.05;4.18;;;;;;;15.44;100.00;100515.06;5229500;28;20032;-68
2021/08/08 06:06:32;;;;;;;12.07;3.67;;;;;;;15.44;100.00;100511.63;5233166;28;20036;-68
2021/08/08 06:09:04;;;;;;;15.07;4.55;;;;;;;15.47;100.00;100521.84;5232398;28;20044;-67
2021/08/08 06:11:37;;;;;;;19.02;4.47;;;;;;;15.47;100.00;100520.03;5232911;28;20017;-67
2021/08/08 06:14:08;;;;;;;;;;;;;;;15.68;100.00;100524.78;5233334;28;20022;-68
2021/08/08 06:16:39;;;;;;;14.55;4.38;;;;;;;15.50;100.00;100530.25;5231873;28;19928;-68
2021/08/08 06:19:11;;;;;;;15.25;3.80;;;;;;;15.55;100.00;100529.72;5231828;28;20056;-68
2021/08/08 06:21:42;;;;;;;18.75;4.72;;;;;;;15.53;100.00;100534.34;5231815;28;20406;-68
2021/08/08 06:24:13;;;;;;;17.52;3.83;;;;;;;15.56;100.00;100545.38;5230605;28;20033;-68
2021/08/08 06:26:44;;;;;;;18.57;4.93;;;;;;;15.60;100.00;100548.50;5232484;28;20159;-68
2021/08/08 06:29:16;;;;;;;16.65;4.20;;;;;;;15.60;100.00;100550.34;5232513;28;20271;-68
2021/08/08 06:31:47;;;;;;;18.20;4.45;;;;;;;15.67;100.00;100554.81;5232148;28;20018;-67
2021/08/08 06:34:18;;;;;;;16.23;3.95;;;;;;;15.70;100.00;100554.47;5231931;28;20472;-69
2021/08/08 06:36:50;;;;;;;15.02;4.60;;;;;;;15.75;100.00;100554.75;5232273;28;20475;-69
2021/08/08 06:39:21;;;;;;;13.25;3.45;;;;;;;15.85;100.00;100573.06;5232303;28;20025;-69
2021/08/08 06:41:52;;;;;;;13.88;3.55;;;;;;;15.87;100.00;100575.53;5232040;28;20026;-67
2021/08/08 06:44:26;;;;;;;17.70;3.83;;;;;;;15.82;100.00;100565.47;5236649;28;20025;-68
2021/08/08 06:46:57;;;;;;;16.20;4.28;;;;;;;15.84;100.00;100575.91;5235828;28;20284;-68
2021/08/08 06:49:28;;;;;;;14.95;3.97;;;;;;;15.86;100.00;100576.53;5235857;28;20021;-68
2021/08/08 06:52:00;;;;;;;15.75;3.55;;;;;;;15.87;100.00;100578.16;5236553;28;20743;-68
2021/08/08 06:54:31;;;;;;;21.23;3.70;;;;;;;15.89;100.00;100590.22;5235276;28;20044;-68
2021/08/08 06:57:02;;;;;;;14.30;4.65;;;;;;;15.97;100.00;100586.72;5236403;28;20026;-68
2021/08/08 06:59:38;;;;;;;16.98;3.88;;;;;;;16.06;100.00;100593.59;5235635;28;20028;-68
2021/08/08 07:02:09;;;;;;;18.23;4.57;;;;;;;16.13;100.00;100599.03;5235093;28;20144;-68
2021/08/08 07:04:41;;;;;;;15.90;4.30;;;;;;;16.21;100.00;100602.50;5234909;28;20026;-70
2021/08/08 07:07:12;;;;;;;13.00;3.97;;;;;;;16.34;100.00;100595.81;5236171;28;20083;-71
2021/08/08 07:09:44;;;;;;;13.30;3.92;;;;;;;16.36;100.00;100599.09;5234802;28;20522;-70
2021/08/08 07:12:15;;;;;;;13.52;3.80;;;;;;;16.30;100.00;100603.25;5236737;28;20372;-68
2021/08/08 07:14:46;;;;;;;15.88;3.67;;;;;;;16.36;100.00;100609.66;5236297;28;20103;-67
2021/08/08 07:17:17;;;;;;;11.38;3.38;;;;;;;16.36;100.00;100610.47;5235686;28;20017;-69
2021/08/08 07:19:49;;;;;;;13.93;3.78;;;;;;;16.43;100.00;100607.97;5235302;28;20029;-69
2021/08/08 07:22:20;;;;;;;17.88;3.88;;;;;;;16.49;100.00;100616.03;5235964;28;20045;-69
2021/08/08 07:24:52;;;;;;;17.65;3.60;;;;;;;16.61;100.00;100618.28;5236224;28;20459;-70
2021/08/08 07:27:23;;;;;;;12.95;3.63;;;;;;;16.73;100.00;100619.53;5233016;28;20028;-70
2021/08/08 07:29:54;;;;;;;17.98;3.78;;;;;;;16.78;100.00;100625.13;5234886;28;20029;-70
2021/08/08 07:32:26;;;;;;;16.95;3.70;;;;;;;16.77;100.00;100620.84;5234164;28;20021;-70
2021/08/08 07:34:57;;;;;;;14.85;3.63;;;;;;;16.70;100.00;100620.69;5234836;28;20022;-70
2021/08/08 07:37:29;;;;;;;10.88;3.28;;;;;;;16.82;100.00;100620.31;5235207;28;20134;-70
2021/08/08 07:40:01;;;;;;;13.20;3.70;;;;;;;16.91;100.00;100621.91;5234189;28;20033;-69
2021/08/08 07:42:32;;;;;;;14.88;4.28;;;;;;;16.81;100.00;100623.97;5223868;28;20561;-70
2021/08/08 07:45:04;;;;;;;14.40;3.67;;;;;;;16.80;100.00;100627.63;5225099;28;20057;-69
2021/08/08 07:47:35;;;;;;;10.07;3.00;;;;;;;16.89;100.00;100632.66;5223777;28;20053;-69
2021/08/08 07:50:07;;;;;;;17.83;4.05;;;;;;;16.98;100.00;100623.69;5222463;28;20160;-69
2021/08/08 07:52:39;;;;;;;14.10;3.70;;;;;;;17.07;100.00;100631.56;5222743;28;20017;-69
2021/08/08 07:55:11;;;;;;;13.68;3.30;;;;;;;17.09;100.00;100632.22;5223523;28;20040;-69
2021/08/08 07:57:42;;;;;;;11.75;3.38;;;;;;;17.13;100.00;100634.31;5222184;28;20303;-69
2021/08/08 08:00:13;;;;;;;14.50;4.10;;;;;;;17.18;100.00;100647.00;5222328;28;20034;-69
2021/08/08 08:02:45;;;;;;;18.48;4.13;;;;;;;17.07;100.00;100642.97;5224428;28;20455;-69
2021/08/08 08:05:16;;;;;;;15.20;3.40;;;;;;;17.14;100.00;100637.78;5221844;28;20083;-69
2021/08/08 08:07:47;;;;;;;11.33;3.60;;;;;;;17.16;100.00;100643.72;5221622;28;20526;-68
2021/08/08 08:10:19;;;;;;;9.52;3.17;;;;;;;17.13;100.00;100646.72;5219407;28;20034;-68
2021/08/08 08:12:50;;;;;;;14.93;3.27;;;;;;;17.06;100.00;100649.25;5214886;28;20034;-69
2021/08/08 08:15:21;;;;;;;14.95;3.08;;;;;;;17.13;100.00;100650.19;5215265;28;20033;-69
2021/08/08 08:17:53;;;;;;;15.63;3.00;;;;;;;17.17;100.00;100648.84;5216516;28;20588;-69
2021/08/08 08:20:24;;;;;;;13.07;3.45;;;;;;;17.12;100.00;100643.28;5216812;28;20033;-69
2021/08/08 08:22:55;;;;;;;9.38;3.08;;;;;;;17.12;100.00;100647.72;5220433;28;20033;-69
2021/08/08 08:25:28;;;;;;;15.68;4.07;;;;;;;17.19;100.00;100653.94;5222288;28;20076;-69
2021/08/08 08:28:00;;;;;;;9.38;2.97;;;;;;;17.17;100.00;100650.66;5223916;28;20017;-69
2021/08/08 08:30:32;;;;;;;10.50;3.08;;;;;;;17.35;100.00;100652.97;5221009;28;20033;-69
2021/08/08 08:33:04;;;;;;;9.80;3.20;;;;;;;17.36;100.00;100660.75;5223822;28;20033;-69
2021/08/08 08:35:35;;;;;;;13.67;3.70;;;;;;;17.61;100.00;100671.94;5231188;28;20056;-69
2021/08/08 08:38:07;;;;;;;11.37;2.97;;;;;;;17.57;99.25;100665.34;5231176;28;20025;-69
2021/08/08 08:40:41;;;;;;;10.85;2.92;;;;;;;17.56;99.24;100662.91;5230555;28;20025;-69
2021/08/08 08:43:13;;;;;;;11.93;3.17;;;;;;;17.47;98.42;100659.53;5213789;28;20048;-69
2021/08/08 08:45:45;;;;;;;12.73;3.17;;;;;;;17.51;98.06;100674.03;5233799;28;20021;-69
2021/08/08 08:48:18;;;;;;;10.83;2.67;;;;;;;17.51;98.49;100669.56;5232057;28;20071;-69
2021/08/08 08:50:54;;;;;;;;;;;;;;;17.78;98.66;100677.13;5233204;28;20295;-69
2021/08/08 08:53:25;;;;;;;8.05;2.50;;;;;;;17.72;97.83;100671.50;5230422;28;19917;-69
2021/08/08 08:55:59;;;;;;;12.13;2.97;;;;;;;17.68;95.20;100683.47;5233320;28;20799;-69
2021/08/08 08:58:31;;;;;;;11.55;3.00;;;;;;;17.62;95.72;100684.22;5232513;28;20379;-69
2021/08/08 09:01:03;;;;;;;8.65;3.10;;;;;;;17.82;95.86;100681.06;5232292;28;20119;-69
2021/08/08 09:03:34;;;;;;;11.18;3.05;;;;;;;17.95;96.62;100692.66;5231132;28;20022;-69
2021/08/08 09:06:05;;;;;;;11.53;2.40;;;;;;;18.06;95.50;100685.28;5228813;28;20049;-69
2021/08/08 09:08:37;;;;;;;9.70;2.90;;;;;;;18.06;95.10;100693.22;5227309;28;20029;-69
2021/08/08 09:11:09;;;;;;;11.13;2.53;;;;;;;18.04;94.37;100703.22;5231995;28;20112;-69
2021/08/08 09:14:11;;;;;;;11.43;2.70;;;;;;;18.22;94.93;100704.50;5233150;28;20422;-69
2021/08/08 09:16:50;;;;;;;15.05;3.17;;;;;;;18.23;93.97;100705.31;5231990;28;20045;-69
2021/08/08 09:19:25;;;;;;;10.40;3.13;;;;;;;18.19;94.33;100710.16;5233490;28;20071;-69
2021/08/08 09:21:57;;;;;;;13.45;2.85;;;;;;;18.25;95.32;100727.16;5232267;28;20436;-69
2021/08/08 09:24:36;;;;;;;8.97;3.20;;;;;;;18.36;95.20;100726.69;5230261;28;20029;-69
2021/08/08 09:27:10;;;;;;;12.65;2.80;;;;;;;18.17;93.16;100727.25;5230789;28;20032;-69
2021/08/08 09:29:44;;;;;;;9.88;2.88;;;;;;;18.10;93.46;100742.22;5227569;28;20418;-69
2021/08/08 09:32:15;;;;;;;8.65;2.53;;;;;;;18.11;93.92;100734.09;5228490;28;20075;-69
2021/08/08 09:34:46;;;;;;;10.10;2.83;;;;;;;18.12;93.18;100737.56;5228828;28;20033;-69
2021/08/08 09:37:22;;;;;;;7.77;2.70;;;;;;;18.20;93.17;100737.47;5231537;28;20391;-69
2021/08/08 09:39:54;;;;;;;9.25;2.83;;;;;;;18.12;93.60;100742.88;5231752;28;20232;-69
2021/08/08 09:42:27;;;;;;;9.80;2.47;;;;;;;18.24;93.92;100749.38;5231796;28;20147;-69
2021/08/08 09:45:00;;;;;;;14.82;3.05;;;;;;;18.22;94.27;100762.81;5232785;28;20386;-70
2021/08/08 09:47:50;;;;;;;;;;;;;;;18.50;94.04;100756.06;5232153;28;20036;-70
2021/08/08 09:50:25;;;;;;;10.82;2.95;;;;;;;18.38;93.90;100764.47;5233193;28;19924;-70
2021/08/08 09:52:59;;;;;;;8.25;2.72;;;;;;;18.43;93.83;100754.13;5232151;28;20124;-70
2021/08/08 09:55:37;;;;;;;8.85;2.63;;;;;;;18.52;93.47;100764.63;5231619;28;20029;-70
2021/08/08 09:58:26;;;;;;;12.15;2.80;;;;;;;18.57;94.29;100768.41;5227692;28;20118;-70
2021/08/08 10:00:59;;;;;;;9.15;2.70;;;;;;;18.57;92.95;100771.06;5227177;28;20025;-70
2021/08/08 10:03:30;;;;;;;10.57;3.50;;;;;;;18.54;91.50;100776.72;5228865;28;20076;-70
2021/08/08 10:06:04;;;;;;;6.60;2.60;;;;;;;18.56;92.45;100774.72;5230789;28;20025;-70
2021/08/08 10:08:35;;;;;;;10.68;3.00;;;;;;;18.58;93.31;100774.53;5229915;28;20375;-70
2021/08/08 10:11:07;;;;;;;9.47;2.33;;;;;;;18.60;91.80;100783.97;5231231;28;20035;-70
2021/08/08 10:13:46;;;;;;;10.80;3.07;;;;;;;18.58;90.69;100787.78;5230632;28;20076;-70
2021/08/08 10:16:19;;;;;;;11.13;2.90;;;;;;;18.52;90.79;100788.50;5230272;28;20557;-70
2021/08/08 10:18:54;;;;;;;9.05;2.40;;;;;;;18.58;91.62;100783.31;5231973;28;20040;-70
2021/08/08 10:21:26;;;;;;;8.80;2.40;;;;;;;18.67;92.67;100781.38;5229853;28;20064;-70
2021/08/08 10:24:03;;;;;;;9.07;2.67;;;;;;;18.82;92.79;100784.03;5225764;28;20106;-71
2021/08/08 10:26:35;;;;;;;5.80;2.40;;;;;;;18.80;91.98;100789.53;5229220;28;20075;-70
2021/08/08 10:29:07;;;;;;;9.57;2.88;;;;;;;18.79;91.60;100793.22;5231806;28;20116;-70
2021/08/08 10:31:39;;;;;;;10.70;2.50;;;;;;;18.90;92.36;100802.50;5233101;28;20060;-71
2021/08/08 10:34:10;;;;;;;8.83;2.37;;;;;;;18.78;90.02;100796.03;5232087;28;20490;-71
2021/08/08 10:36:42;;;;;;;11.93;2.90;;;;;;;18.65;90.46;100796.66;5232639;28;20057;-71
2021/08/08 10:39:16;;;;;;;9.37;2.77;;;;;;;18.71;90.39;100804.75;5231913;28;20033;-71
2021/08/08 10:42:00;;;;;;;9.75;2.58;;;;;;;18.77;92.04;100792.56;5232885;28;20037;-71
2021/08/08 10:44:52;;;;;;;6.75;2.15;;;;;;;18.81;90.96;100795.66;5231993;28;20041;-70
2021/08/08 10:47:31;;;;;;;13.25;3.00;;;;;;;18.73;90.27;100788.63;5231523;28;20033;-70
2021/08/08 10:50:10;;;;;;;10.57;2.50;;;;;;;18.92;90.50;100789.88;5224380;28;20486;-71
2021/08/08 10:52:43;;;;;;;8.77;2.60;;;;;;;18.98;88.91;100781.19;5218457;28;20021;-70
2021/08/08 10:55:23;;;;;;;8.77;2.45;;;;;;;19.28;90.00;100791.69;5219169;28;20040;-70
2021/08/08 10:57:54;;;;;;;9.38;2.58;;;;;;;19.52;89.63;100783.38;5219469;28;20042;-70
2021/08/08 11:00:34;;;;;;;10.80;2.33;;;;;;;19.86;89.47;100790.66;5220317;28;20423;-69
2021/08/08 11:03:16;;;;;;;9.57;2.80;;;;;;;19.95;85.90;100778.03;5219416;28;20052;-69
2021/08/08 11:05:49;;;;;;;7.70;2.50;;;;;;;20.28;84.70;100793.41;5219640;28;20026;-70
2021/08/08 11:08:23;;;;;;;9.63;2.95;;;;;;;20.64;84.46;100764.75;5216976;28;20033;-70
2021/08/08 11:10:54;;;;;;;9.73;2.90;;;;;;;20.79;82.40;100777.94;5220482;28;20034;-71
2021/08/08 11:13:28;;;;;;;8.70;2.50;;;;;;;20.72;81.95;100777.09;5228827;28;20030;-70
2021/08/08 11:16:00;;;;;;;8.57;2.25;;;;;;;20.35;81.52;100780.97;5231779;28;20147;-69
2021/08/08 11:18:31;;;;;;;6.57;2.37;;;;;;;20.17;80.74;100776.16;5232072;28;20033;-69
2021/08/08 11:21:13;;;;;;;8.70;2.80;;;;;;;20.36;82.01;100778.09;5228685;28;20582;-69
2021/08/08 11:23:44;;;;;;;6.90;2.33;;;;;;;20.47;82.63;100779.41;5230215;28;20064;-69
2021/08/08 11:26:19;;;;;;;8.50;2.30;;;;;;;20.39;81.61;100772.41;5231379;28;20109;-70
2021/08/08 11:29:00;;;;;;;5.25;2.45;;;;;;;20.37;82.57;100781.59;5232396;28;21114;-70
2021/08/08 11:31:36;;;;;;;9.43;2.20;;;;;;;20.20;80.79;100791.72;5229337;28;20124;-70
2021/08/08 11:34:09;;;;;;;5.30;2.13;;;;;;;20.09;80.17;100778.97;5235108;28;20033;-69
2021/08/08 11:36:41;;;;;;;11.82;2.60;;;;;;;20.01;81.54;100790.56;5234523;28;20045;-70
2021/08/08 11:39:13;;;;;;;8.68;2.00;;;;;;;20.10;82.46;100799.22;5234107;28;20029;-70